Time;durP1;ratioP1;P1;durP2;ratioP2;P2;SDS_P1;SDS_P2;PMS_P1;PMS_P2;Temp;Humidity;BMP_temperature;BMP_pressure;BME280_temperature;BME280_humidity;BME280_pressure;Samples;Min_cycle;Max_cycle;Signal;HPM_P1;HPM_P2
2022/12/29 00:04:53;;;;;;;;;;;4.80;99.90;;;3.68;100.00;95474.09;10568103;27;2027;-69
2022/12/29 00:10:07;;;;;;;;;;;4.80;99.90;;;3.66;100.00;95470.88;10548489;27;2057;-71
2022/12/29 00:36:34;;;;;;;;;;;5.00;99.90;;;3.98;100.00;95454.44;10567789;27;2086;-71
2022/12/29 00:47:02;;;;;;;;;;;5.10;99.90;;;3.79;100.00;95457.31;10561831;27;2269;-71
2022/12/29 00:52:05;;;;;;;;;;;5.00;99.90;;;3.68;100.00;95449.38;10563524;27;2071;-70
2022/12/29 00:57:10;;;;;;;;;;;4.90;99.90;;;3.64;100.00;95450.91;10565112;28;2128;-71
2022/12/29 01:02:14;;;;;;;;;;;4.90;99.90;;;3.57;100.00;95461.69;10529385;28;2108;-70
2022/12/29 01:07:23;;;;;;;;;;;4.80;99.90;;;3.41;100.00;95457.13;10566520;27;2076;-71
2022/12/29 01:17:53;;;;;;;;;;;4.70;99.90;;;3.44;100.00;95460.13;10504801;27;2087;-70
2022/12/29 01:22:55;;;;;;;;;;;4.60;99.90;;;3.47;100.00;95458.81;10475488;28;4337;-70
2022/12/29 01:27:58;;;;;;;;;;;4.70;99.90;;;3.48;100.00;95463.09;10480984;28;2030;-70
2022/12/29 01:33:01;;;;;;;;;;;4.80;99.90;;;3.59;100.00;95467.56;10478866;28;2185;-73
2022/12/29 01:38:04;;;;;;;;;;;4.70;99.90;;;3.58;100.00;95465.97;10478653;28;2040;-71
2022/12/29 01:43:07;;;;;;;;;;;4.70;99.90;;;3.56;100.00;95462.72;10473362;28;2011;-70
2022/12/29 01:48:17;;;;;;;;;;;4.70;99.90;;;3.55;100.00;95461.09;10474026;28;2011;-73
2022/12/29 01:53:19;;;;;;;;;;;4.70;99.90;;;3.53;100.00;95465.84;10472267;28;1987;-73
2022/12/29 01:58:22;;;;;;;;;;;5.00;99.90;;;3.60;100.00;95469.19;10474396;28;2110;-71
2022/12/29 02:03:26;;;;;;;;;;;4.80;99.90;;;3.71;100.00;95449.72;10473913;28;2070;-69
2022/12/29 02:08:28;;;;;;;;;;;4.80;99.90;;;3.80;100.00;95448.28;10467683;28;2010;-70
2022/12/29 02:13:33;;;;;;;;;;;4.90;99.90;;;3.87;100.00;95444.66;10476725;28;2078;-69
2022/12/29 02:18:41;;;;;;;;;;;5.00;99.90;;;3.84;100.00;95442.50;10516816;28;2080;-69
2022/12/29 02:23:44;;;;;;;;;;;5.60;99.90;;;3.86;100.00;95435.88;10511657;28;4352;-70
2022/12/29 02:28:46;;;;;;;;;;;5.20;99.90;;;3.98;100.00;95449.94;10491212;28;2004;-71
2022/12/29 02:33:49;;;;;;;;;;;5.00;99.90;;;4.02;100.00;95442.28;10488686;28;2240;-70
2022/12/29 02:38:52;;;;;;;;;;;5.10;99.90;;;4.04;100.00;95448.16;10487507;28;2139;-70
2022/12/29 02:43:54;;;;;;;;;;;5.10;99.90;;;4.05;100.00;95431.97;10486144;28;2029;-70
2022/12/29 02:49:01;;;;;;;;;;;5.10;99.90;;;4.06;100.00;95433.56;10482589;28;2048;-69
2022/12/29 02:59:24;;;;;;;;;;;5.20;99.90;;;4.09;100.00;95424.31;10485979;28;2079;-70
2022/12/29 03:04:29;;;;;;;;;;;5.20;99.90;;;4.20;100.00;95418.13;10486431;28;2062;-69
2022/12/29 03:09:32;;;;;;;;;;;5.20;99.90;;;4.34;100.00;95410.63;10487604;28;2090;-69
2022/12/29 03:19:55;;;;;;;;;;;5.50;99.90;;;4.66;100.00;95402.03;10484278;28;2016;-70
2022/12/29 03:24:58;;;;;;;;;;;5.60;99.90;;;4.81;100.00;95399.56;10486547;28;4369;-70
2022/12/29 03:30:01;;;;;;;;;;;5.70;99.90;;;4.95;100.00;95400.00;10483516;28;2078;-70
2022/12/29 03:35:03;;;;;;;;;;;5.90;99.90;;;5.07;99.08;95392.69;10479121;28;2148;-70
2022/12/29 03:40:06;;;;;;;;;;;6.00;99.90;;;5.22;97.24;95389.44;10481499;28;2103;-69
2022/12/29 03:45:09;;;;;;;;;;;6.10;99.90;;;5.31;96.34;95388.72;10476057;28;2154;-69
2022/12/29 03:50:21;;;;;;;;;;;6.30;99.90;;;5.38;94.81;95396.53;10484991;28;2107;-69
2022/12/29 03:55:24;;;;;;;;;;;6.40;99.90;;;5.38;94.60;95392.00;10481942;28;2121;-69
2022/12/29 04:00:28;;;;;;;;;;;6.40;99.90;;;5.45;93.33;95385.66;10488580;28;2060;-70
2022/12/29 04:05:31;;;;;;;;;;;6.50;99.90;;;5.53;91.20;95380.69;10479153;28;2007;-70
2022/12/29 04:10:34;;;;;;;;;;;6.70;99.90;;;5.58;91.72;95385.25;10492550;28;1981;-70
2022/12/29 04:15:45;;;;;;;;;;;6.70;99.90;;;5.57;92.42;95383.66;10483313;28;2341;-71
2022/12/29 04:21:03;;;;;;;;;;;6.60;99.90;;;5.61;92.54;95390.91;10478996;28;2019;-70
2022/12/29 04:26:08;;;;;;;;;;;6.60;99.90;;;5.68;90.84;95390.72;10481625;28;4836;-70
2022/12/29 04:31:11;;;;;;;;;;;6.70;99.90;;;5.72;92.13;95389.13;10478191;28;2022;-69
2022/12/29 04:36:14;;;;;;;;;;;6.70;99.90;;;5.77;87.72;95370.53;10472915;28;2018;-70
2022/12/29 04:41:17;;;;;;;;;;;6.70;99.90;;;5.78;90.03;95377.47;10478251;28;2003;-71
2022/12/29 04:46:19;;;;;;;;;;;6.80;99.90;;;5.78;89.76;95374.78;10480247;28;2039;-71
2022/12/29 04:51:22;;;;;;;;;;;6.80;99.90;;;5.81;89.77;95376.97;10481695;28;2380;-72
2022/12/29 04:56:25;;;;;;;;;;;6.80;99.90;;;5.86;87.83;95384.22;10481411;28;2130;-73
2022/12/29 05:01:27;;;;;;;;;;;6.90;99.90;;;5.84;88.47;95381.78;10473870;28;2111;-69
2022/12/29 05:06:30;;;;;;;;;;;6.90;99.90;;;5.87;86.64;95375.97;10482959;28;2080;-69
2022/12/29 05:11:33;;;;;;;;;;;6.90;99.90;;;5.88;88.89;95382.91;10473262;28;2515;-69
2022/12/29 05:16:36;;;;;;;;;;;6.90;99.90;;;5.91;87.63;95386.94;10482848;28;2100;-69
2022/12/29 05:21:39;;;;;;;;;;;6.90;99.90;;;5.94;87.54;95383.78;10482472;28;4397;-73
2022/12/29 05:26:41;;;;;;;;;;;7.00;99.90;;;5.93;87.82;95385.66;10477912;28;2276;-73
2022/12/29 05:31:44;;;;;;;;;;;7.00;99.90;;;5.95;87.48;95383.53;10478697;28;2128;-73
2022/12/29 05:36:47;;;;;;;;;;;7.00;99.90;;;6.01;87.71;95384.38;10478787;28;2015;-73
2022/12/29 05:41:49;;;;;;;;;;;7.10;99.90;;;6.03;86.21;95384.91;10482527;28;2095;-72
2022/12/29 05:46:52;;;;;;;;;;;7.10;99.90;;;6.09;87.40;95369.75;10484373;28;2063;-71
2022/12/29 05:51:55;;;;;;;;;;;7.10;99.90;;;6.07;85.68;95379.88;10481556;28;2076;-71
2022/12/29 05:56:57;;;;;;;;;;;7.10;99.90;;;5.98;87.41;95376.88;10483259;28;2149;-72
2022/12/29 06:02:04;;;;;;;;;;;7.10;99.90;;;5.94;87.19;95379.25;10479506;28;2123;-69
2022/12/29 06:07:07;;;;;;;;;;;7.00;99.90;;;5.93;87.69;95382.19;10477298;28;2423;-70
2022/12/29 06:12:09;;;;;;;;;;;7.00;99.90;;;5.91;88.08;95376.28;10483846;28;1985;-70
2022/12/29 06:17:12;;;;;;;;;;;7.00;99.90;;;5.87;89.35;95381.28;10485620;28;2056;-70
2022/12/29 06:22:15;;;;;;;;;;;7.00;99.90;;;5.85;89.37;95393.25;10468996;28;4368;-71
2022/12/29 06:27:18;;;;;;;;;;;6.90;99.90;;;5.84;91.37;95395.13;10479235;28;2100;-70
2022/12/29 06:32:20;;;;;;;;;;;6.90;99.90;;;5.80;91.84;95386.03;10477615;28;2155;-69
2022/12/29 06:37:23;;;;;;;;;;;6.90;99.90;;;5.79;91.18;95381.75;10480337;28;2005;-70
2022/12/29 06:42:26;;;;;;;;;;;6.90;99.90;;;5.76;92.03;95378.78;10491745;28;2086;-70
2022/12/29 06:47:28;;;;;;;;;;;6.90;99.90;;;5.76;90.25;95381.44;10491688;28;2004;-72
2022/12/29 06:52:31;;;;;;;;;;;6.90;99.90;;;5.75;89.90;95383.31;10493668;28;2139;-68
2022/12/29 06:57:34;;;;;;;;;;;6.90;99.90;;;5.77;92.21;95375.84;10487814;28;2133;-73
2022/12/29 07:02:36;;;;;;;;;;;6.90;99.90;;;5.69;91.99;95384.31;10486356;28;2108;-70
2022/12/29 07:07:39;;;;;;;;;;;6.80;99.90;;;5.59;92.95;95390.34;10487151;28;2067;-70
2022/12/29 07:12:42;;;;;;;;;;;6.70;99.90;;;5.64;91.83;95408.25;10483600;28;2413;-71
2022/12/29 07:17:49;;;;;;;;;;;6.70;99.90;;;5.73;92.95;95412.09;10476071;28;2079;-71
2022/12/29 07:22:51;;;;;;;;;;;6.80;99.90;;;5.80;92.85;95418.03;10477762;28;4450;-70
2022/12/29 07:27:54;;;;;;;;;;;6.90;99.90;;;5.91;91.70;95419.75;10481658;28;2066;-68
2022/12/29 07:32:57;;;;;;;;;;;7.10;99.90;;;5.85;90.25;95426.09;10482049;28;2036;-70
2022/12/29 07:37:59;;;;;;;;;;;7.20;99.90;;;5.66;92.53;95432.81;10481985;28;2043;-70
2022/12/29 07:43:02;;;;;;;;;;;6.90;99.90;;;5.55;95.82;95437.25;10482445;28;2058;-69
2022/12/29 07:48:07;;;;;;;;;;;6.80;99.90;;;5.61;93.31;95435.44;10463115;28;2164;-70
2022/12/29 07:53:10;;;;;;;;;;;6.70;99.90;;;5.72;94.47;95436.34;10481694;28;2181;-71
2022/12/29 07:58:12;;;;;;;;;;;6.80;99.90;;;5.90;91.69;95425.31;10480367;28;2039;-70
2022/12/29 08:03:17;;;;;;;;;;;6.90;99.90;;;5.93;93.50;95436.34;10482641;28;2023;-70
2022/12/29 08:08:20;;;;;;;;;;;6.90;99.90;;;5.94;93.61;95445.94;10486161;28;2194;-69
2022/12/29 08:13:23;;;;;;;;;;;7.00;99.90;;;6.01;93.15;95431.59;10477899;28;2428;-70
2022/12/29 08:18:25;;;;;;;;;;;7.00;99.90;;;6.08;90.96;95433.00;10480428;28;2027;-69
2022/12/29 08:23:28;;;;;;;;;;;7.10;99.90;;;6.14;89.37;95433.84;10481960;28;4457;-68
2022/12/29 08:28:31;;;;;;;;;;;7.20;99.90;;;6.16;87.69;95423.72;10484366;28;2501;-70
2022/12/29 08:33:33;;;;;;;;;;;7.20;99.90;;;6.23;88.07;95418.97;10479665;28;2122;-71
2022/12/29 08:38:36;;;;;;;;;;;7.30;99.90;;;6.41;85.50;95423.13;10481220;28;2094;-71
2022/12/29 08:43:39;;;;;;;;;;;7.30;99.90;;;6.60;85.84;95431.53;10482993;28;2086;-71
2022/12/29 08:48:45;;;;;;;;;;;7.50;99.90;;;6.97;83.47;95421.63;10486881;28;2082;-69
2022/12/29 08:53:48;;;;;;;;;;;7.80;99.90;;;7.17;82.65;95422.78;10480287;28;2436;-71
2022/12/29 08:58:50;;;;;;;;;;;8.00;99.90;;;7.29;79.98;95434.06;10463377;28;2112;-75
2022/12/29 09:03:53;;;;;;;;;;;8.20;99.90;;;7.33;78.48;95437.84;10478504;28;2044;-76
2022/12/29 09:09:16;;;;;;;;;;;8.20;99.90;;;7.48;78.48;95435.22;10484621;28;2186;-71
2022/12/29 09:14:21;;;;;;;;;;;8.40;99.90;;;7.71;76.93;95444.66;10484795;28;2067;-71
2022/12/29 09:19:23;;;;;;;;;;;8.60;99.90;;;8.00;73.50;95452.22;10480872;28;2189;-71
2022/12/29 09:24:26;;;;;;;;;;;8.70;99.90;;;8.26;71.81;95442.34;10483774;28;4502;-75
2022/12/29 09:29:31;;;;;;;;;;;9.00;99.90;;;8.58;69.04;95439.44;10482706;28;2015;-71
2022/12/29 09:34:34;;;;;;;;;;;9.30;99.90;;;8.87;66.72;95437.00;10478002;28;2160;-72
2022/12/29 09:39:37;;;;;;;;;;;9.60;99.90;;;9.23;63.85;95445.78;10479076;28;2091;-72
2022/12/29 09:44:40;;;;;;;;;;;10.10;99.90;;;9.72;69.70;95448.53;10494502;28;2185;-70
2022/12/29 09:49:45;;;;;;;;;;;10.20;99.90;;;10.32;78.10;95440.44;10496656;28;2069;-73
2022/12/29 09:54:51;;;;;;;;;;;;;;;10.62;75.57;95431.31;10497269;28;2032;-72
2022/12/29 10:00:05;;;;;;;;;;;;;;;10.50;70.41;95434.38;10489360;28;2040;-73
2022/12/29 10:05:07;;;;;;;;;;;11.10;99.90;;;10.45;61.88;95418.28;10485084;28;2147;-71
2022/12/29 10:10:10;;;;;;;;;;;11.10;99.90;;;10.42;61.79;95413.47;10483496;28;2086;-74
2022/12/29 10:15:19;;;;;;;;;;;11.20;99.90;;;10.45;62.21;95417.50;10486279;28;2006;-73
2022/12/29 10:20:22;;;;;;;;;;;11.20;99.90;;;10.65;65.06;95417.31;10482261;28;2044;-71
2022/12/29 10:25:25;;;;;;;;;;;11.20;99.90;;;10.79;63.70;95420.94;10486830;28;4283;-74
2022/12/29 10:30:34;;;;;;;;;;;11.50;99.90;;;10.54;59.18;95421.16;10483259;28;1981;-73
2022/12/29 10:35:38;;;;;;;;;;;;;;;10.48;55.57;95412.34;10478332;28;2065;-73
2022/12/29 10:40:41;;;;;;;;;;;11.20;99.90;;;10.56;56.77;95419.03;10480432;28;2138;-71
2022/12/29 10:45:45;;;;;;;;;;;11.30;99.90;;;10.47;53.88;95416.13;10480090;28;2385;-72
2022/12/29 10:50:47;;;;;;;;;;;11.30;99.90;;;10.52;55.26;95408.03;10482162;28;1995;-73
2022/12/29 10:55:50;;;;;;;;;;;11.30;99.90;;;10.43;54.92;95387.41;10484598;28;2044;-73
2022/12/29 11:00:53;;;;;;;;;;;11.10;99.90;;;10.32;55.53;95388.59;10486113;28;2067;-75
2022/12/29 11:05:56;;;;;;;;;;;11.20;99.90;;;10.34;56.26;95373.78;10483285;28;2047;-72
2022/12/29 11:10:59;;;;;;;;;;;11.10;99.90;;;10.18;57.09;95383.81;10478743;28;2064;-72
2022/12/29 11:16:02;;;;;;;;;;;11.00;99.90;;;10.48;56.13;95377.41;10482500;28;2042;-72
2022/12/29 11:21:10;;;;;;;;;;;11.10;99.90;;;10.70;53.94;95366.19;10484308;28;4342;-72
2022/12/29 11:26:13;;;;;;;;;;;11.30;99.90;;;10.87;53.21;95352.31;10485690;28;2050;-72
2022/12/29 11:31:16;;;;;;;;;;;11.50;99.90;;;11.13;52.30;95336.69;10480335;28;2144;-72
2022/12/29 11:36:19;;;;;;;;;;;11.80;99.90;;;11.06;53.88;95347.78;10478789;28;2047;-71
2022/12/29 11:41:22;;;;;;;;;;;11.80;99.90;;;11.07;54.55;95337.84;10483797;28;2037;-72
2022/12/29 11:46:25;;;;;;;;;;;11.90;99.90;;;11.17;55.56;95336.91;10465517;28;2087;-71
2022/12/29 11:51:28;;;;;;;;;;;11.90;99.90;;;11.09;53.52;95335.66;10475046;28;2012;-71
2022/12/29 11:56:31;;;;;;;;;;;11.90;99.90;;;11.08;53.07;95334.06;10476982;28;2007;-70
2022/12/29 12:01:41;;;;;;;;;;;12.00;99.90;;;11.18;51.57;95342.00;10475270;28;2451;-71
2022/12/29 12:06:45;;;;;;;;;;;11.90;99.90;;;11.13;51.50;95342.06;10483126;28;2007;-71
2022/12/29 12:11:48;;;;;;;;;;;12.10;99.90;;;11.16;50.71;95333.44;10480105;28;2062;-71
2022/12/29 12:16:51;;;;;;;;;;;12.00;99.90;;;11.24;50.89;95322.00;10476630;28;2148;-71
2022/12/29 12:21:54;;;;;;;;;;;12.10;99.90;;;11.25;52.76;95323.63;10475177;28;4350;-71
2022/12/29 12:26:57;;;;;;;;;;;12.10;99.90;;;11.23;52.71;95320.41;10483416;28;2333;-72
2022/12/29 12:31:59;;;;;;;;;;;12.10;99.90;;;11.27;52.83;95305.31;10483662;28;2299;-75
2022/12/29 12:37:02;;;;;;;;;;;12.20;99.90;;;11.34;53.39;95303.06;10490343;28;2377;-70
2022/12/29 12:42:05;;;;;;;;;;;12.10;99.90;;;11.40;54.58;95294.94;10487248;28;2403;-72
2022/12/29 12:47:08;;;;;;;;;;;12.30;99.90;;;11.55;56.37;95287.44;10478678;28;2268;-72
2022/12/29 12:52:11;;;;;;;;;;;;;;;11.57;56.66;95304.06;10475457;28;2321;-72
2022/12/29 12:57:14;;;;;;;;;;;;;;;11.58;57.98;95286.06;10480891;28;2425;-71
2022/12/29 13:02:17;;;;;;;;;;;;;;;11.69;58.57;95284.81;10481711;28;2364;-72
2022/12/29 13:07:21;;;;;;;;;;;;;;;11.82;59.24;95284.09;10478735;28;2425;-71
2022/12/29 13:12:24;;;;;;;;;;;;;;;11.88;60.69;95293.69;10471840;28;2293;-72
2022/12/29 13:17:28;;;;;;;;;;;;;;;11.88;61.15;95287.50;10473857;28;2698;-71
2022/12/29 13:22:31;;;;;;;;;;;;;;;11.88;62.02;95288.31;10476842;28;4318;-72
2022/12/29 13:27:44;;;;;;;;;;;;;;;11.76;62.83;95290.59;10476779;28;2391;-70
2022/12/29 13:32:47;;;;;;;;;;;;;;;11.76;63.48;95281.75;10480657;28;2416;-70
2022/12/29 13:37:50;;;;;;;;;;;;;;;11.83;64.53;95285.72;10480071;28;2381;-76
2022/12/29 13:42:59;;;;;;;;;;;;;;;11.76;65.65;95290.59;10486603;28;2337;-77
2022/12/29 13:48:02;;;;;;;;;;;;;;;11.74;67.73;95298.19;10477365;28;2413;-74
2022/12/29 13:53:10;;;;;;;;;;;;;;;11.70;68.14;95297.16;10480489;28;2377;-71
2022/12/29 13:58:13;;;;;;;;;;;;;;;11.63;68.69;95307.50;10480626;28;2295;-72
2022/12/29 14:03:16;;;;;;;;;;;;;;;11.51;70.44;95305.25;10478745;28;2339;-72
2022/12/29 14:08:19;;;;;;;;;;;;;;;11.42;72.25;95298.13;10480647;28;2472;-73
2022/12/29 14:13:23;;;;;;;;;;;;;;;11.30;73.71;95301.22;10476599;28;2724;-71
2022/12/29 14:18:26;;;;;;;;;;;;;;;11.18;76.25;95296.25;10474814;28;2415;-73
2022/12/29 14:23:30;;;;;;;;;;;;;;;11.20;76.98;95293.31;10484355;28;4486;-70
2022/12/29 14:28:33;;;;;;;;;;;;;;;10.98;80.25;95302.69;10483452;28;2264;-72
2022/12/29 14:33:36;;;;;;;;;;;;;;;10.94;81.45;95300.88;10482943;28;2676;-71
2022/12/29 14:38:39;;;;;;;;;;;;;;;10.86;82.40;95304.19;10490676;28;2357;-71
2022/12/29 14:43:42;;;;;;;;;;;;;;;10.70;85.43;95301.69;10488681;28;2291;-74
2022/12/29 14:48:45;;;;;;;;;;;;;;;10.62;85.14;95313.03;10490169;28;2405;-76
2022/12/29 14:53:49;;;;;;;;;;;;;;;10.52;87.63;95326.59;10471851;28;2654;-72
2022/12/29 14:58:52;;;;;;;;;;;;;;;10.40;89.00;95318.91;10487698;28;2329;-76
2022/12/29 15:03:56;;;;;;;;;;;;;;;10.25;80.70;95322.56;10485024;28;2330;-75
2022/12/29 15:08:59;;;;;;;;;;;;;;;10.19;76.13;95329.00;10485130;28;2339;-74
2022/12/29 15:14:02;;;;;;;;;;;;;;;10.07;78.29;95328.56;10464536;28;2408;-72
2022/12/29 15:19:05;;;;;;;;;;;;;;;10.02;75.43;95323.25;10488421;28;2398;-74
2022/12/29 15:24:08;;;;;;;;;;;;;;;9.82;75.88;95326.88;10490039;28;2349;-75
2022/12/29 15:29:11;;;;;;;;;;;;;;;9.55;77.03;95338.06;10506666;28;2300;-76
2022/12/29 15:34:15;;;;;;;;;;;;;;;9.47;76.11;95331.38;10501849;28;2336;-76
2022/12/29 15:39:21;;;;;;;;;;;;;;;9.31;76.66;95332.56;10486832;28;2297;-72
2022/12/29 15:44:44;;;;;;;;;;;;;;;9.28;77.57;95333.09;10485176;28;2325;-72
2022/12/29 15:49:47;;;;;;;;;;;;;;;9.18;78.55;95330.47;10480918;28;2638;-72
2022/12/29 15:54:50;;;;;;;;;;;10.70;99.90;;;9.21;78.57;95330.72;10480630;28;2225;-76
2022/12/29 15:59:53;;;;;;;;;;;10.00;99.90;;;9.25;79.37;95330.16;10475695;28;2409;-71
2022/12/29 16:04:56;;;;;;;;;;;10.30;99.90;;;9.17;80.04;95327.00;10480827;28;2366;-77
2022/12/29 16:10:18;;;;;;;;;;;10.10;99.90;;;9.08;80.31;95325.13;10482145;28;2338;-74
2022/12/29 16:15:22;;;;;;;;;;;10.00;99.90;;;8.94;81.02;95343.69;10475085;28;2354;-75
2022/12/29 16:20:25;;;;;;;;;;;10.10;99.90;;;8.90;80.13;95339.94;10476923;28;2341;-73
2022/12/29 16:25:27;;;;;;;;;;;9.90;99.90;;;8.93;81.04;95332.19;10478988;28;2368;-73
2022/12/29 16:30:30;;;;;;;;;;;10.00;99.90;;;8.97;81.72;95335.13;10479241;28;2365;-73
2022/12/29 16:35:35;;;;;;;;;;;9.90;99.90;;;9.07;82.42;95345.00;10482757;28;2339;-72
2022/12/29 16:40:38;;;;;;;;;;;9.90;99.90;;;9.01;85.66;95357.59;10480259;28;2351;-71
2022/12/29 16:45:41;;;;;;;;;;;10.00;99.90;;;9.05;88.92;95352.50;10476447;28;2363;-71
2022/12/29 16:50:43;;;;;;;;;;;9.90;99.90;;;8.91;93.61;95363.03;10480655;28;2310;-72
2022/12/29 16:55:46;;;;;;;;;;;10.00;99.90;;;8.93;93.84;95364.34;10479555;28;2359;-71
2022/12/29 17:00:49;;;;;;;;;;;9.90;99.90;;;8.89;94.43;95365.94;10477167;28;2336;-72
2022/12/29 17:05:51;;;;;;;;;;;9.50;99.90;;;8.82;97.10;95367.31;10468057;28;2689;-73
2022/12/29 17:16:19;;;;;;;;;;;9.70;99.90;;;8.77;100.00;95365.44;10472247;28;2305;-71
2022/12/29 17:21:22;;;;;;;;;;;9.80;99.90;;;8.64;100.00;95364.13;10477729;28;2391;-73
2022/12/29 17:26:25;;;;;;;;;;;9.70;99.90;;;8.57;100.00;95368.97;10470718;28;2328;-72
2022/12/29 17:31:30;;;;;;;;;;;;;;;8.42;100.00;95355.63;10477720;28;2335;-72
2022/12/29 17:36:33;;;;;;;;;;;;;;;8.33;100.00;95362.53;10474751;28;2222;-71
2022/12/29 17:41:38;;;;;;;;;;;;;;;8.39;100.00;95369.53;10469859;28;2347;-71
2022/12/29 17:46:41;;;;;;;;;;;;;;;8.49;100.00;95361.50;10477838;28;2406;-70
2022/12/29 17:51:44;;;;;;;;;;;;;;;8.55;100.00;95376.47;10468203;28;2430;-72
2022/12/29 17:56:47;;;;;;;;;;;;;;;8.56;100.00;95367.38;10480065;28;2408;-72
2022/12/29 18:01:50;;;;;;;;;;;;;;;8.47;100.00;95363.66;10485486;28;2687;-71
2022/12/29 18:06:54;;;;;;;;;;;;;;;8.50;100.00;95373.00;10485200;28;2450;-73
2022/12/29 18:11:57;;;;;;;;;;;;;;;8.55;100.00;95373.81;10485343;28;2259;-71
2022/12/29 18:17:00;;;;;;;;;;;;;;;8.49;100.00;95376.75;10487867;28;2406;-73
2022/12/29 18:22:03;;;;;;;;;;;;;;;8.45;100.00;95376.47;10484476;28;2342;-70
2022/12/29 18:27:06;;;;;;;;;;;9.60;99.90;;;8.32;100.00;95371.66;10500140;28;2483;-71
2022/12/29 18:32:08;;;;;;;;;;;9.40;99.90;;;8.39;100.00;95364.16;10485965;28;2094;-72
2022/12/29 18:37:13;;;;;;;;;;;9.40;99.90;;;8.37;100.00;95369.00;10482159;28;2384;-71
2022/12/29 18:42:17;;;;;;;;;;;9.40;99.90;;;8.43;100.00;95367.13;10486673;28;2267;-72
2022/12/29 18:47:20;;;;;;;;;;;9.50;99.90;;;8.49;100.00;95369.53;10482271;28;2363;-72
2022/12/29 18:52:23;;;;;;;;;;;9.50;99.90;;;8.56;100.00;95371.94;10480746;28;3262;-71
2022/12/29 18:57:29;;;;;;;;;;;9.60;99.90;;;8.61;100.00;95370.03;10483198;28;3763;-71
2022/12/29 19:02:32;;;;;;;;;;;9.60;99.90;;;8.60;100.00;95364.97;10476863;28;3486;-72
2022/12/29 19:07:34;;;;;;;;;;;9.60;99.90;;;8.53;99.75;95375.16;10482312;28;2327;-71
2022/12/29 19:12:37;;;;;;;;;;;9.60;99.90;;;8.47;99.54;95374.34;10484155;28;3510;-72
2022/12/29 19:17:40;;;;;;;;;;;9.60;99.90;;;8.55;100.00;95381.84;10490320;28;2320;-72
2022/12/29 19:22:43;;;;;;;;;;;9.60;99.90;;;8.63;100.00;95388.53;10488628;28;2320;-71
2022/12/29 19:27:46;;;;;;;;;;;9.60;99.90;;;8.65;100.00;95375.66;10484291;28;3250;-72
2022/12/29 19:32:51;;;;;;;;;;;9.70;99.90;;;8.64;100.00;95380.22;10468957;28;7040;-71
2022/12/29 19:37:54;;;;;;;;;;;9.70;99.90;;;8.72;96.63;95375.41;10474932;28;5666;-72
2022/12/29 19:42:56;;;;;;;;;;;9.70;99.90;;;8.71;96.01;95379.13;10481449;28;5600;-73
2022/12/29 19:47:59;;;;;;;;;;;9.70;99.90;;;8.65;98.66;95379.16;10485152;28;2435;-78
2022/12/29 19:53:02;;;;;;;;;;;9.70;99.90;;;8.68;99.80;95374.31;10478869;28;5409;-72
2022/12/29 19:58:09;;;;;;;;;;;9.70;99.90;;;8.73;98.88;95387.72;10480214;28;2687;-71
2022/12/29 20:03:12;;;;;;;;;;;9.70;99.90;;;8.74;100.00;95394.69;10482791;28;3140;-71
2022/12/29 20:08:14;;;;;;;;;;;9.70;99.90;;;8.65;100.00;95397.09;10486762;28;5448;-71
2022/12/29 20:13:17;;;;;;;;;;;9.70;99.90;;;8.19;100.00;95396.28;10479621;28;2399;-72
2022/12/29 20:18:23;;;;;;;;;;;;;;;7.87;100.00;95402.69;10474533;28;2355;-71
2022/12/29 20:23:30;;;;;;;;;;;9.10;99.90;;;7.57;100.00;95401.56;10480010;28;2324;-72
2022/12/29 20:28:33;;;;;;;;;;;8.90;99.90;;;7.48;100.00;95400.44;10474900;28;2393;-71
2022/12/29 20:33:36;;;;;;;;;;;8.90;99.90;;;7.40;100.00;95387.59;10465044;28;2717;-72
2022/12/29 20:38:39;;;;;;;;;;;8.70;99.90;;;7.40;100.00;95397.50;10477896;28;2323;-72
2022/12/29 20:43:42;;;;;;;;;;;8.60;99.90;;;7.44;100.00;95404.69;10474008;28;3538;-72
2022/12/29 20:48:44;;;;;;;;;;;8.60;99.90;;;7.48;100.00;95403.13;10471269;28;2239;-72
2022/12/29 20:53:47;;;;;;;;;;;8.60;99.90;;;7.49;100.00;95402.03;10475694;28;2657;-70
2022/12/29 20:58:50;;;;;;;;;;;8.60;99.90;;;7.53;100.00;95383.63;10472356;28;2384;-71
2022/12/29 21:04:12;;;;;;;;;;;8.70;99.90;;;7.59;100.00;95370.00;10477740;28;2511;-72
2022/12/29 21:09:16;;;;;;;;;;;8.70;99.90;;;7.56;100.00;95370.50;10478941;28;2340;-71
2022/12/29 21:14:19;;;;;;;;;;;8.60;99.90;;;7.53;100.00;95373.72;10477955;28;2221;-72
2022/12/29 21:19:22;;;;;;;;;;;8.60;99.90;;;7.57;100.00;95369.47;10475691;28;2290;-71
2022/12/29 21:24:24;;;;;;;;;;;8.60;99.90;;;7.64;100.00;95365.72;10482258;28;2327;-71
2022/12/29 21:29:28;;;;;;;;;;;8.60;99.90;;;7.66;100.00;95368.94;10477396;28;2320;-71
2022/12/29 21:34:31;;;;;;;;;;;8.70;99.90;;;7.61;100.00;95382.28;10464929;28;2284;-72
2022/12/29 21:39:34;;;;;;;;;;;8.70;99.90;;;7.62;100.00;95378.53;10487315;28;2290;-71
2022/12/29 21:49:57;;;;;;;;;;;8.70;99.90;;;7.71;100.00;95374.31;10480461;28;2438;-73
2022/12/29 21:55:03;;;;;;;;;;;8.70;99.90;;;7.73;100.00;95369.47;10464598;28;2322;-75
2022/12/29 22:16:07;;;;;;;;;;;8.50;99.90;;;7.24;100.00;95400.09;10479038;28;2312;-73
2022/12/29 22:21:10;;;;;;;;;;;8.30;99.90;;;7.29;100.00;95396.63;10464494;28;2509;-73
2022/12/29 22:26:13;;;;;;;;;;;8.30;99.90;;;7.32;100.00;95407.63;10495591;28;2360;-73
2022/12/29 22:31:15;;;;;;;;;;;8.40;99.90;;;7.37;100.00;95404.16;10481818;28;2304;-75
2022/12/29 22:36:18;;;;;;;;;;;8.40;99.90;;;7.32;100.00;95409.50;10479962;28;2281;-76
2022/12/29 22:41:21;;;;;;;;;;;8.40;99.90;;;7.38;100.00;95431.69;10476406;28;5297;-75
2022/12/29 22:46:24;;;;;;;;;;;8.40;99.90;;;7.37;100.00;95436.22;10478866;28;2391;-75
2022/12/29 22:51:26;;;;;;;;;;;8.40;99.90;;;7.32;100.00;95439.72;10483566;28;2345;-73
2022/12/29 22:56:29;;;;;;;;;;;8.40;99.90;;;7.40;100.00;95446.41;10488323;28;2222;-74
2022/12/29 23:01:31;;;;;;;;;;;8.40;99.90;;;7.52;100.00;95443.53;10483109;28;2416;-73
2022/12/29 23:06:34;;;;;;;;;;;8.40;99.90;;;7.54;100.00;95447.53;10484656;28;2411;-74
2022/12/29 23:11:37;;;;;;;;;;;8.50;99.90;;;7.56;100.00;95464.13;10479242;28;2343;-74
2022/12/29 23:16:40;;;;;;;;;;;8.50;99.90;;;7.52;100.00;95472.94;10482306;28;2367;-72
2022/12/29 23:21:42;;;;;;;;;;;8.60;99.90;;;7.50;100.00;95481.22;10474210;28;2602;-73
2022/12/29 23:26:45;;;;;;;;;;;8.50;99.90;;;7.55;100.00;95475.88;10485075;28;2322;-75
2022/12/29 23:31:48;;;;;;;;;;;8.60;99.90;;;7.65;100.00;95479.69;10483336;28;2478;-77
2022/12/29 23:36:50;;;;;;;;;;;8.60;99.90;;;7.61;100.00;95484.75;10481278;28;2296;-71
2022/12/29 23:41:53;;;;;;;;;;;8.70;99.90;;;7.61;100.00;95484.75;10476337;28;5101;-72
2022/12/29 23:46:56;;;;;;;;;;;8.60;99.90;;;7.59;100.00;95482.34;10480010;28;2193;-73
2022/12/29 23:51:59;;;;;;;;;;;8.60;99.90;;;7.67;100.00;95496.28;10481487;28;2278;-73
2022/12/29 23:57:01;;;;;;;;;;;8.70;99.90;;;7.72;100.00;95499.78;10485589;28;2339;-75
